sensor_id;sensor_type;location;lat;lon;timestamp;temperature;humidity
23618;DHT22;18207;32.078;34.818;2023-06-22T00:00:51;30.10;48.40
23618;DHT22;18207;32.078;34.818;2023-06-22T00:03:25;30.10;48.40
23618;DHT22;18207;32.078;34.818;2023-06-22T00:05:56;30.10;48.40
23618;DHT22;18207;32.078;34.818;2023-06-22T00:08:26;30.10;48.50
23618;DHT22;18207;32.078;34.818;2023-06-22T00:10:57;30.10;49.00
23618;DHT22;18207;32.078;34.818;2023-06-22T00:13:27;30.10;48.50
23618;DHT22;18207;32.078;34.818;2023-06-22T00:15:57;30.10;48.50
23618;DHT22;18207;32.078;34.818;2023-06-22T00:18:29;30.10;48.50
23618;DHT22;18207;32.078;34.818;2023-06-22T00:21:00;30.10;48.60
23618;DHT22;18207;32.078;34.818;2023-06-22T00:23:30;30.10;48.50
23618;DHT22;18207;32.078;34.818;2023-06-22T00:26:02;30.10;48.50
23618;DHT22;18207;32.078;34.818;2023-06-22T00:28:32;30.10;48.50
23618;DHT22;18207;32.078;34.818;2023-06-22T00:31:03;30.10;48.50
23618;DHT22;18207;32.078;34.818;2023-06-22T00:33:35;30.10;48.50
23618;DHT22;18207;32.078;34.818;2023-06-22T00:36:06;30.10;48.50
23618;DHT22;18207;32.078;34.818;2023-06-22T00:38:40;30.10;48.60
23618;DHT22;18207;32.078;34.818;2023-06-22T00:41:11;30.10;48.60
23618;DHT22;18207;32.078;34.818;2023-06-22T00:43:41;30.00;48.50
23618;DHT22;18207;32.078;34.818;2023-06-22T00:46:12;30.00;48.50
23618;DHT22;18207;32.078;34.818;2023-06-22T00:48:44;30.00;48.50
23618;DHT22;18207;32.078;34.818;2023-06-22T00:51:15;30.00;48.60
23618;DHT22;18207;32.078;34.818;2023-06-22T00:53:52;30.00;48.50
23618;DHT22;18207;32.078;34.818;2023-06-22T00:56:23;30.00;48.50
23618;DHT22;18207;32.078;34.818;2023-06-22T00:58:58;30.00;48.50
23618;DHT22;18207;32.078;34.818;2023-06-22T01:01:31;29.90;48.50
23618;DHT22;18207;32.078;34.818;2023-06-22T01:04:04;29.90;48.50
23618;DHT22;18207;32.078;34.818;2023-06-22T01:06:44;29.90;48.60
23618;DHT22;18207;32.078;34.818;2023-06-22T01:09:28;29.90;48.70
23618;DHT22;18207;32.078;34.818;2023-06-22T01:12:04;29.80;48.60
23618;DHT22;18207;32.078;34.818;2023-06-22T01:14:41;29.80;48.60
23618;DHT22;18207;32.078;34.818;2023-06-22T01:17:18;29.80;49.30
23618;DHT22;18207;32.078;34.818;2023-06-22T01:19:54;29.80;48.70
23618;DHT22;18207;32.078;34.818;2023-06-22T01:22:30;29.80;48.70
23618;DHT22;18207;32.078;34.818;2023-06-22T01:25:09;29.80;48.80
23618;DHT22;18207;32.078;34.818;2023-06-22T01:28:11;29.80;48.80
23618;DHT22;18207;32.078;34.818;2023-06-22T01:30:58;29.70;48.80
23618;DHT22;18207;32.078;34.818;2023-06-22T01:33:35;29.70;48.80
23618;DHT22;18207;32.078;34.818;2023-06-22T01:36:07;29.70;48.70
23618;DHT22;18207;32.078;34.818;2023-06-22T01:38:39;29.70;48.80
23618;DHT22;18207;32.078;34.818;2023-06-22T01:41:11;29.70;48.80
23618;DHT22;18207;32.078;34.818;2023-06-22T01:43:43;29.60;48.70
23618;DHT22;18207;32.078;34.818;2023-06-22T01:46:18;29.70;48.80
23618;DHT22;18207;32.078;34.818;2023-06-22T01:48:50;29.60;48.90
23618;DHT22;18207;32.078;34.818;2023-06-22T01:51:21;29.60;48.90
23618;DHT22;18207;32.078;34.818;2023-06-22T01:53:52;29.60;48.90
23618;DHT22;18207;32.078;34.818;2023-06-22T01:56:22;29.60;48.90
23618;DHT22;18207;32.078;34.818;2023-06-22T01:58:57;29.50;48.90
23618;DHT22;18207;32.078;34.818;2023-06-22T02:01:42;29.50;48.90
23618;DHT22;18207;32.078;34.818;2023-06-22T02:04:21;29.50;49.00
23618;DHT22;18207;32.078;34.818;2023-06-22T02:06:58;29.50;49.00
23618;DHT22;18207;32.078;34.818;2023-06-22T02:09:30;29.50;49.00
23618;DHT22;18207;32.078;34.818;2023-06-22T02:12:05;29.50;49.00
23618;DHT22;18207;32.078;34.818;2023-06-22T02:14:38;29.50;49.00
23618;DHT22;18207;32.078;34.818;2023-06-22T02:17:11;29.50;49.10
23618;DHT22;18207;32.078;34.818;2023-06-22T02:19:42;29.50;49.00
23618;DHT22;18207;32.078;34.818;2023-06-22T02:22:13;29.40;49.00
23618;DHT22;18207;32.078;34.818;2023-06-22T02:24:43;29.40;49.00
23618;DHT22;18207;32.078;34.818;2023-06-22T02:27:14;29.40;49.00
23618;DHT22;18207;32.078;34.818;2023-06-22T02:29:44;29.40;49.00
23618;DHT22;18207;32.078;34.818;2023-06-22T02:32:16;29.40;49.10
23618;DHT22;18207;32.078;34.818;2023-06-22T02:34:46;29.40;49.10
23618;DHT22;18207;32.078;34.818;2023-06-22T02:37:16;29.40;49.10
23618;DHT22;18207;32.078;34.818;2023-06-22T02:39:47;29.40;49.10
23618;DHT22;18207;32.078;34.818;2023-06-22T02:42:17;29.40;49.10
23618;DHT22;18207;32.078;34.818;2023-06-22T02:44:49;29.40;49.10
23618;DHT22;18207;32.078;34.818;2023-06-22T02:47:21;29.30;49.00
23618;DHT22;18207;32.078;34.818;2023-06-22T02:49:51;29.40;49.10
23618;DHT22;18207;32.078;34.818;2023-06-22T02:52:22;29.40;49.10
23618;DHT22;18207;32.078;34.818;2023-06-22T02:54:52;29.30;49.20
23618;DHT22;18207;32.078;34.818;2023-06-22T02:57:22;29.40;49.20
23618;DHT22;18207;32.078;34.818;2023-06-22T02:59:53;29.30;49.20
23618;DHT22;18207;32.078;34.818;2023-06-22T03:02:25;29.30;49.20
23618;DHT22;18207;32.078;34.818;2023-06-22T03:04:55;29.30;49.20
23618;DHT22;18207;32.078;34.818;2023-06-22T03:07:25;29.30;49.20
23618;DHT22;18207;32.078;34.818;2023-06-22T03:09:57;29.30;49.20
23618;DHT22;18207;32.078;34.818;2023-06-22T03:12:28;29.30;49.20
23618;DHT22;18207;32.078;34.818;2023-06-22T03:14:57;29.30;49.10
23618;DHT22;18207;32.078;34.818;2023-06-22T03:17:29;29.30;49.10
23618;DHT22;18207;32.078;34.818;2023-06-22T03:19:59;29.20;49.10
23618;DHT22;18207;32.078;34.818;2023-06-22T03:22:34;29.20;49.10
23618;DHT22;18207;32.078;34.818;2023-06-22T03:25:05;29.30;49.20
23618;DHT22;18207;32.078;34.818;2023-06-22T03:27:41;29.30;49.30
23618;DHT22;18207;32.078;34.818;2023-06-22T03:30:12;29.30;49.30
23618;DHT22;18207;32.078;34.818;2023-06-22T03:32:44;29.30;49.30
23618;DHT22;18207;32.078;34.818;2023-06-22T03:35:14;29.30;49.40
23618;DHT22;18207;32.078;34.818;2023-06-22T03:37:44;29.30;49.40
23618;DHT22;18207;32.078;34.818;2023-06-22T03:40:14;29.20;49.30
23618;DHT22;18207;32.078;34.818;2023-06-22T03:42:45;29.30;49.40
23618;DHT22;18207;32.078;34.818;2023-06-22T03:45:16;29.30;49.40
23618;DHT22;18207;32.078;34.818;2023-06-22T03:47:49;29.30;49.40
23618;DHT22;18207;32.078;34.818;2023-06-22T03:50:19;29.30;49.40
23618;DHT22;18207;32.078;34.818;2023-06-22T03:52:49;29.30;49.40
23618;DHT22;18207;32.078;34.818;2023-06-22T03:55:20;29.30;49.30
23618;DHT22;18207;32.078;34.818;2023-06-22T03:57:50;29.30;49.30
23618;DHT22;18207;32.078;34.818;2023-06-22T04:00:21;29.30;49.30
23618;DHT22;18207;32.078;34.818;2023-06-22T04:02:54;29.30;49.40
23618;DHT22;18207;32.078;34.818;2023-06-22T04:05:24;29.30;49.40
23618;DHT22;18207;32.078;34.818;2023-06-22T04:07:55;29.30;49.40
23618;DHT22;18207;32.078;34.818;2023-06-22T04:10:25;29.30;49.40
23618;DHT22;18207;32.078;34.818;2023-06-22T04:12:55;29.30;49.40
23618;DHT22;18207;32.078;34.818;2023-06-22T04:15:25;29.40;49.50
23618;DHT22;18207;32.078;34.818;2023-06-22T04:17:57;29.40;49.50
23618;DHT22;18207;32.078;34.818;2023-06-22T04:20:28;29.40;49.50
23618;DHT22;18207;32.078;34.818;2023-06-22T04:22:59;29.40;49.50
23618;DHT22;18207;32.078;34.818;2023-06-22T04:25:30;29.40;49.50
23618;DHT22;18207;32.078;34.818;2023-06-22T04:28:00;29.50;49.60
23618;DHT22;18207;32.078;34.818;2023-06-22T04:30:33;29.50;49.50
23618;DHT22;18207;32.078;34.818;2023-06-22T04:33:05;29.50;49.40
23618;DHT22;18207;32.078;34.818;2023-06-22T04:35:35;29.50;49.40
23618;DHT22;18207;32.078;34.818;2023-06-22T04:38:08;29.60;49.40
23618;DHT22;18207;32.078;34.818;2023-06-22T04:40:40;29.50;49.30
23618;DHT22;18207;32.078;34.818;2023-06-22T04:43:11;29.60;49.30
23618;DHT22;18207;32.078;34.818;2023-06-22T04:45:41;29.60;49.30
23618;DHT22;18207;32.078;34.818;2023-06-22T04:48:13;29.60;49.30
23618;DHT22;18207;32.078;34.818;2023-06-22T04:50:44;29.70;49.40
23618;DHT22;18207;32.078;34.818;2023-06-22T04:53:15;29.70;49.40
23618;DHT22;18207;32.078;34.818;2023-06-22T04:55:45;29.70;49.40
23618;DHT22;18207;32.078;34.818;2023-06-22T04:58:16;29.70;49.40
23618;DHT22;18207;32.078;34.818;2023-06-22T05:00:47;29.70;49.30
23618;DHT22;18207;32.078;34.818;2023-06-22T05:03:21;29.70;49.40
23618;DHT22;18207;32.078;34.818;2023-06-22T05:05:53;29.80;49.40
23618;DHT22;18207;32.078;34.818;2023-06-22T05:08:23;29.80;49.30
23618;DHT22;18207;32.078;34.818;2023-06-22T05:10:56;29.80;49.30
23618;DHT22;18207;32.078;34.818;2023-06-22T05:13:32;29.90;49.40
23618;DHT22;18207;32.078;34.818;2023-06-22T05:16:03;29.80;49.30
23618;DHT22;18207;32.078;34.818;2023-06-22T05:18:35;29.90;49.20
23618;DHT22;18207;32.078;34.818;2023-06-22T05:21:06;29.90;49.20
23618;DHT22;18207;32.078;34.818;2023-06-22T05:23:36;29.90;49.20
23618;DHT22;18207;32.078;34.818;2023-06-22T05:26:06;30.00;49.30
23618;DHT22;18207;32.078;34.818;2023-06-22T05:28:37;30.00;49.30
23618;DHT22;18207;32.078;34.818;2023-06-22T05:31:07;30.00;49.60
23618;DHT22;18207;32.078;34.818;2023-06-22T05:33:39;30.00;49.20
23618;DHT22;18207;32.078;34.818;2023-06-22T05:36:10;30.10;49.20
23618;DHT22;18207;32.078;34.818;2023-06-22T05:38:41;30.10;49.20
23618;DHT22;18207;32.078;34.818;2023-06-22T05:41:12;30.20;49.70
23618;DHT22;18207;32.078;34.818;2023-06-22T05:43:42;30.20;49.10
23618;DHT22;18207;32.078;34.818;2023-06-22T05:46:12;30.30;49.10
23618;DHT22;18207;32.078;34.818;2023-06-22T05:48:45;30.30;49.00
23618;DHT22;18207;32.078;34.818;2023-06-22T05:51:15;30.30;49.00
23618;DHT22;18207;32.078;34.818;2023-06-22T05:53:45;30.40;49.10
23618;DHT22;18207;32.078;34.818;2023-06-22T05:56:17;30.40;49.10
23618;DHT22;18207;32.078;34.818;2023-06-22T05:58:47;30.50;49.10
23618;DHT22;18207;32.078;34.818;2023-06-22T06:01:18;30.50;49.00
23618;DHT22;18207;32.078;34.818;2023-06-22T06:03:50;30.60;49.00
23618;DHT22;18207;32.078;34.818;2023-06-22T06:06:20;30.60;49.40
23618;DHT22;18207;32.078;34.818;2023-06-22T06:08:56;30.60;48.80
23618;DHT22;18207;32.078;34.818;2023-06-22T06:11:27;30.70;48.90
23618;DHT22;18207;32.078;34.818;2023-06-22T06:13:57;30.70;48.80
23618;DHT22;18207;32.078;34.818;2023-06-22T06:16:27;30.80;48.80
23618;DHT22;18207;32.078;34.818;2023-06-22T06:18:59;30.80;48.70
23618;DHT22;18207;32.078;34.818;2023-06-22T06:21:29;30.80;48.60
23618;DHT22;18207;32.078;34.818;2023-06-22T06:24:00;30.90;48.50
23618;DHT22;18207;32.078;34.818;2023-06-22T06:26:30;30.90;48.40
23618;DHT22;18207;32.078;34.818;2023-06-22T06:29:00;31.00;48.40
23618;DHT22;18207;32.078;34.818;2023-06-22T06:31:31;31.00;48.40
23618;DHT22;18207;32.078;34.818;2023-06-22T06:34:03;31.10;48.40
23618;DHT22;18207;32.078;34.818;2023-06-22T06:36:33;31.10;48.30
23618;DHT22;18207;32.078;34.818;2023-06-22T06:39:03;31.10;48.20
23618;DHT22;18207;32.078;34.818;2023-06-22T06:41:33;31.10;48.20
23618;DHT22;18207;32.078;34.818;2023-06-22T06:44:04;31.20;48.20
23618;DHT22;18207;32.078;34.818;2023-06-22T06:46:34;31.30;48.20
23618;DHT22;18207;32.078;34.818;2023-06-22T06:49:07;31.30;48.10
23618;DHT22;18207;32.078;34.818;2023-06-22T06:51:37;31.40;48.00
23618;DHT22;18207;32.078;34.818;2023-06-22T06:54:08;31.40;48.00
23618;DHT22;18207;32.078;34.818;2023-06-22T06:56:38;31.50;48.00
23618;DHT22;18207;32.078;34.818;2023-06-22T06:59:15;31.50;47.90
23618;DHT22;18207;32.078;34.818;2023-06-22T07:01:45;31.60;47.80
23618;DHT22;18207;32.078;34.818;2023-06-22T07:04:18;31.60;47.70
23618;DHT22;18207;32.078;34.818;2023-06-22T07:06:48;31.70;47.70
23618;DHT22;18207;32.078;34.818;2023-06-22T07:09:18;31.70;47.60
23618;DHT22;18207;32.078;34.818;2023-06-22T07:11:48;31.70;47.50
23618;DHT22;18207;32.078;34.818;2023-06-22T07:14:19;31.80;47.50
23618;DHT22;18207;32.078;34.818;2023-06-22T07:16:49;31.80;47.40
23618;DHT22;18207;32.078;34.818;2023-06-22T07:19:27;31.90;47.40
23618;DHT22;18207;32.078;34.818;2023-06-22T07:21:59;31.90;47.40
23618;DHT22;18207;32.078;34.818;2023-06-22T07:24:28;31.90;47.30
23618;DHT22;18207;32.078;34.818;2023-06-22T07:27:00;32.00;47.30
23618;DHT22;18207;32.078;34.818;2023-06-22T07:29:31;32.00;47.20
23618;DHT22;18207;32.078;34.818;2023-06-22T07:32:03;32.00;47.10
23618;DHT22;18207;32.078;34.818;2023-06-22T07:34:36;32.00;47.10
23618;DHT22;18207;32.078;34.818;2023-06-22T07:37:06;32.10;47.00
23618;DHT22;18207;32.078;34.818;2023-06-22T07:39:37;32.10;47.20
23618;DHT22;18207;32.078;34.818;2023-06-22T07:42:07;32.20;46.90
23618;DHT22;18207;32.078;34.818;2023-06-22T07:44:38;32.20;46.90
23618;DHT22;18207;32.078;34.818;2023-06-22T07:47:08;32.20;46.70
23618;DHT22;18207;32.078;34.818;2023-06-22T07:49:41;32.30;46.70
23618;DHT22;18207;32.078;34.818;2023-06-22T07:52:11;32.30;46.60
23618;DHT22;18207;32.078;34.818;2023-06-22T07:54:41;32.30;46.60
23618;DHT22;18207;32.078;34.818;2023-06-22T07:57:12;32.40;46.50
23618;DHT22;18207;32.078;34.818;2023-06-22T07:59:42;32.40;46.40
23618;DHT22;18207;32.078;34.818;2023-06-22T08:02:13;32.40;46.30
23618;DHT22;18207;32.078;34.818;2023-06-22T08:04:45;32.50;46.30
23618;DHT22;18207;32.078;34.818;2023-06-22T08:07:15;32.50;46.20
23618;DHT22;18207;32.078;34.818;2023-06-22T08:09:48;32.50;46.10
23618;DHT22;18207;32.078;34.818;2023-06-22T08:12:19;32.50;46.10
23618;DHT22;18207;32.078;34.818;2023-06-22T08:14:49;32.60;46.10
23618;DHT22;18207;32.078;34.818;2023-06-22T08:17:19;32.50;45.90
23618;DHT22;18207;32.078;34.818;2023-06-22T08:19:51;32.60;45.90
23618;DHT22;18207;32.078;34.818;2023-06-22T08:22:22;32.60;45.90
23618;DHT22;18207;32.078;34.818;2023-06-22T08:24:53;32.60;45.70
23618;DHT22;18207;32.078;34.818;2023-06-22T08:27:23;32.70;45.80
23618;DHT22;18207;32.078;34.818;2023-06-22T08:29:56;32.70;45.80
23618;DHT22;18207;32.078;34.818;2023-06-22T08:32:27;32.70;45.60
23618;DHT22;18207;32.078;34.818;2023-06-22T08:35:03;32.70;45.50
23618;DHT22;18207;32.078;34.818;2023-06-22T08:37:33;32.80;45.50
23618;DHT22;18207;32.078;34.818;2023-06-22T08:40:04;32.80;45.40
23618;DHT22;18207;32.078;34.818;2023-06-22T08:42:40;32.80;45.40
23618;DHT22;18207;32.078;34.818;2023-06-22T08:45:11;32.80;45.30
23618;DHT22;18207;32.078;34.818;2023-06-22T08:47:42;32.80;45.20
23618;DHT22;18207;32.078;34.818;2023-06-22T08:50:14;32.80;45.20
23618;DHT22;18207;32.078;34.818;2023-06-22T08:52:45;32.90;45.20
23618;DHT22;18207;32.078;34.818;2023-06-22T08:55:16;32.90;45.20
23618;DHT22;18207;32.078;34.818;2023-06-22T08:57:46;32.90;45.20
23618;DHT22;18207;32.078;34.818;2023-06-22T09:00:18;32.90;45.20
23618;DHT22;18207;32.078;34.818;2023-06-22T09:02:48;32.90;45.20
23618;DHT22;18207;32.078;34.818;2023-06-22T09:05:21;33.00;45.20
23618;DHT22;18207;32.078;34.818;2023-06-22T09:07:53;33.00;45.00
23618;DHT22;18207;32.078;34.818;2023-06-22T09:10:24;33.00;45.00
23618;DHT22;18207;32.078;34.818;2023-06-22T09:12:56;33.00;44.90
23618;DHT22;18207;32.078;34.818;2023-06-22T09:15:27;33.00;45.00
23618;DHT22;18207;32.078;34.818;2023-06-22T09:17:57;33.00;45.00
23618;DHT22;18207;32.078;34.818;2023-06-22T09:20:29;33.00;45.00
23618;DHT22;18207;32.078;34.818;2023-06-22T09:23:00;33.00;44.80
23618;DHT22;18207;32.078;34.818;2023-06-22T09:25:31;33.00;45.40
23618;DHT22;18207;32.078;34.818;2023-06-22T09:28:01;33.10;44.80
23618;DHT22;18207;32.078;34.818;2023-06-22T09:30:31;33.10;44.70
23618;DHT22;18207;32.078;34.818;2023-06-22T09:33:01;33.10;44.70
23618;DHT22;18207;32.078;34.818;2023-06-22T09:35:33;33.10;44.70
23618;DHT22;18207;32.078;34.818;2023-06-22T09:38:03;33.10;44.70
23618;DHT22;18207;32.078;34.818;2023-06-22T09:40:33;33.10;44.70
23618;DHT22;18207;32.078;34.818;2023-06-22T09:43:07;33.10;44.70
23618;DHT22;18207;32.078;34.818;2023-06-22T09:45:38;33.00;44.60
23618;DHT22;18207;32.078;34.818;2023-06-22T09:48:09;33.10;44.70
23618;DHT22;18207;32.078;34.818;2023-06-22T09:50:41;33.10;44.60
23618;DHT22;18207;32.078;34.818;2023-06-22T09:53:11;33.10;44.50
23618;DHT22;18207;32.078;34.818;2023-06-22T09:55:42;33.10;44.50
23618;DHT22;18207;32.078;34.818;2023-06-22T09:58:13;33.10;44.50
23618;DHT22;18207;32.078;34.818;2023-06-22T10:00:43;33.10;44.50
23618;DHT22;18207;32.078;34.818;2023-06-22T10:03:14;33.10;44.50
23618;DHT22;18207;32.078;34.818;2023-06-22T10:05:46;33.10;44.60
23618;DHT22;18207;32.078;34.818;2023-06-22T10:08:16;33.10;44.50
23618;DHT22;18207;32.078;34.818;2023-06-22T10:10:46;33.10;44.60
23618;DHT22;18207;32.078;34.818;2023-06-22T10:13:19;33.10;44.50
23618;DHT22;18207;32.078;34.818;2023-06-22T10:15:50;33.10;44.50
23618;DHT22;18207;32.078;34.818;2023-06-22T10:18:20;33.10;44.40
23618;DHT22;18207;32.078;34.818;2023-06-22T10:20:52;33.10;44.40
23618;DHT22;18207;32.078;34.818;2023-06-22T10:23:23;33.10;44.40
23618;DHT22;18207;32.078;34.818;2023-06-22T10:25:53;33.20;44.40
23618;DHT22;18207;32.078;34.818;2023-06-22T10:28:25;33.10;44.30
23618;DHT22;18207;32.078;34.818;2023-06-22T10:30:59;33.20;44.40
23618;DHT22;18207;32.078;34.818;2023-06-22T10:33:29;33.20;44.30
23618;DHT22;18207;32.078;34.818;2023-06-22T10:36:01;33.20;44.20
23618;DHT22;18207;32.078;34.818;2023-06-22T10:38:32;33.20;44.20
23618;DHT22;18207;32.078;34.818;2023-06-22T10:41:02;33.20;44.10
23618;DHT22;18207;32.078;34.818;2023-06-22T10:43:33;33.20;44.10
23618;DHT22;18207;32.078;34.818;2023-06-22T10:46:03;33.20;44.10
23618;DHT22;18207;32.078;34.818;2023-06-22T10:48:33;33.20;44.10
23618;DHT22;18207;32.078;34.818;2023-06-22T10:51:05;33.20;44.00
23618;DHT22;18207;32.078;34.818;2023-06-22T10:53:36;33.20;44.00
23618;DHT22;18207;32.078;34.818;2023-06-22T10:56:06;33.20;44.00
23618;DHT22;18207;32.078;34.818;2023-06-22T10:58:36;33.20;44.00
23618;DHT22;18207;32.078;34.818;2023-06-22T11:01:07;33.20;44.00
23618;DHT22;18207;32.078;34.818;2023-06-22T11:03:56;33.20;44.00
23618;DHT22;18207;32.078;34.818;2023-06-22T11:06:29;33.20;44.00
23618;DHT22;18207;32.078;34.818;2023-06-22T11:08:59;33.20;44.00
23618;DHT22;18207;32.078;34.818;2023-06-22T11:11:52;33.20;44.00
23618;DHT22;18207;32.078;34.818;2023-06-22T11:14:22;33.20;44.00
23618;DHT22;18207;32.078;34.818;2023-06-22T11:16:53;33.20;44.00
23618;DHT22;18207;32.078;34.818;2023-06-22T11:19:23;33.20;44.00
23618;DHT22;18207;32.078;34.818;2023-06-22T11:21:55;33.20;44.00
23618;DHT22;18207;32.078;34.818;2023-06-22T11:24:25;33.20;44.00
23618;DHT22;18207;32.078;34.818;2023-06-22T11:26:56;33.10;43.90
23618;DHT22;18207;32.078;34.818;2023-06-22T11:29:26;33.10;43.90
23618;DHT22;18207;32.078;34.818;2023-06-22T11:32:05;33.10;43.90
23618;DHT22;18207;32.078;34.818;2023-06-22T11:34:39;33.10;43.90
23618;DHT22;18207;32.078;34.818;2023-06-22T11:37:11;33.10;43.90
23618;DHT22;18207;32.078;34.818;2023-06-22T11:39:42;33.10;43.90
23618;DHT22;18207;32.078;34.818;2023-06-22T11:42:20;33.10;43.90
23618;DHT22;18207;32.078;34.818;2023-06-22T11:44:51;33.10;43.90
23618;DHT22;18207;32.078;34.818;2023-06-22T11:47:22;33.10;43.90
23618;DHT22;18207;32.078;34.818;2023-06-22T11:49:52;33.10;43.90
23618;DHT22;18207;32.078;34.818;2023-06-22T11:52:24;33.10;43.90
23618;DHT22;18207;32.078;34.818;2023-06-22T11:54:54;33.10;43.90
23618;DHT22;18207;32.078;34.818;2023-06-22T11:57:27;33.10;43.90
23618;DHT22;18207;32.078;34.818;2023-06-22T11:59:57;33.10;43.90
23618;DHT22;18207;32.078;34.818;2023-06-22T12:02:28;33.00;43.80
23618;DHT22;18207;32.078;34.818;2023-06-22T12:04:58;33.00;43.90
23618;DHT22;18207;32.078;34.818;2023-06-22T12:07:34;33.00;43.90
23618;DHT22;18207;32.078;34.818;2023-06-22T12:10:06;33.00;43.90
23618;DHT22;18207;32.078;34.818;2023-06-22T12:12:36;33.00;43.90
23618;DHT22;18207;32.078;34.818;2023-06-22T12:15:07;32.90;43.90
23618;DHT22;18207;32.078;34.818;2023-06-22T12:17:38;32.90;44.00
23618;DHT22;18207;32.078;34.818;2023-06-22T12:20:09;32.90;44.00
23618;DHT22;18207;32.078;34.818;2023-06-22T12:22:42;32.90;44.00
23618;DHT22;18207;32.078;34.818;2023-06-22T12:25:13;32.90;44.00
23618;DHT22;18207;32.078;34.818;2023-06-22T12:27:43;32.90;44.00
23618;DHT22;18207;32.078;34.818;2023-06-22T12:30:14;32.90;44.00
23618;DHT22;18207;32.078;34.818;2023-06-22T12:32:45;32.90;44.00
23618;DHT22;18207;32.078;34.818;2023-06-22T12:35:17;32.90;44.10
23618;DHT22;18207;32.078;34.818;2023-06-22T12:37:49;32.90;44.00
23618;DHT22;18207;32.078;34.818;2023-06-22T12:40:19;32.80;44.00
23618;DHT22;18207;32.078;34.818;2023-06-22T12:42:49;32.90;44.00
23618;DHT22;18207;32.078;34.818;2023-06-22T12:45:19;32.80;44.00
23618;DHT22;18207;32.078;34.818;2023-06-22T12:47:49;32.80;44.60
23618;DHT22;18207;32.078;34.818;2023-06-22T12:50:19;32.80;44.00
23618;DHT22;18207;32.078;34.818;2023-06-22T12:52:52;32.80;43.90
23618;DHT22;18207;32.078;34.818;2023-06-22T12:55:22;32.80;44.00
23618;DHT22;18207;32.078;34.818;2023-06-22T12:57:53;32.80;44.00
23618;DHT22;18207;32.078;34.818;2023-06-22T13:00:23;32.80;44.00
23618;DHT22;18207;32.078;34.818;2023-06-22T13:02:54;32.80;44.10
23618;DHT22;18207;32.078;34.818;2023-06-22T13:05:25;32.80;44.00
23618;DHT22;18207;32.078;34.818;2023-06-22T13:07:57;32.70;44.00
23618;DHT22;18207;32.078;34.818;2023-06-22T13:10:27;32.70;43.90
23618;DHT22;18207;32.078;34.818;2023-06-22T13:12:58;32.70;43.90
23618;DHT22;18207;32.078;34.818;2023-06-22T13:15:29;32.70;44.00
23618;DHT22;18207;32.078;34.818;2023-06-22T13:17:59;32.70;44.00
23618;DHT22;18207;32.078;34.818;2023-06-22T13:20:29;32.60;43.90
23618;DHT22;18207;32.078;34.818;2023-06-22T13:23:01;32.60;44.00
23618;DHT22;18207;32.078;34.818;2023-06-22T13:25:32;32.60;44.30
23618;DHT22;18207;32.078;34.818;2023-06-22T13:28:02;32.60;44.10
23618;DHT22;18207;32.078;34.818;2023-06-22T13:30:36;32.60;44.10
23618;DHT22;18207;32.078;34.818;2023-06-22T13:33:06;32.50;44.10
23618;DHT22;18207;32.078;34.818;2023-06-22T13:35:36;32.50;44.20
23618;DHT22;18207;32.078;34.818;2023-06-22T13:38:12;32.50;44.20
23618;DHT22;18207;32.078;34.818;2023-06-22T13:40:42;32.50;44.10
23618;DHT22;18207;32.078;34.818;2023-06-22T13:43:15;32.50;44.10
23618;DHT22;18207;32.078;34.818;2023-06-22T13:45:45;32.40;44.00
23618;DHT22;18207;32.078;34.818;2023-06-22T13:48:17;32.40;44.10
23618;DHT22;18207;32.078;34.818;2023-06-22T13:50:47;32.40;44.10
23618;DHT22;18207;32.078;34.818;2023-06-22T13:53:20;32.50;44.20
23618;DHT22;18207;32.078;34.818;2023-06-22T13:55:50;32.40;44.20
23618;DHT22;18207;32.078;34.818;2023-06-22T13:58:21;32.40;44.20
23618;DHT22;18207;32.078;34.818;2023-06-22T14:00:51;32.30;44.20
23618;DHT22;18207;32.078;34.818;2023-06-22T14:03:23;32.30;44.20
23618;DHT22;18207;32.078;34.818;2023-06-22T14:05:53;32.30;44.30
23618;DHT22;18207;32.078;34.818;2023-06-22T14:08:27;32.30;44.40
23618;DHT22;18207;32.078;34.818;2023-06-22T14:11:08;32.30;44.40
23618;DHT22;18207;32.078;34.818;2023-06-22T14:13:39;32.30;44.30
23618;DHT22;18207;32.078;34.818;2023-06-22T14:16:10;32.30;44.20
23618;DHT22;18207;32.078;34.818;2023-06-22T14:18:42;32.30;44.40
23618;DHT22;18207;32.078;34.818;2023-06-22T14:21:14;32.30;44.40
23618;DHT22;18207;32.078;34.818;2023-06-22T14:23:46;32.30;44.40
23618;DHT22;18207;32.078;34.818;2023-06-22T14:26:17;32.20;44.30
23618;DHT22;18207;32.078;34.818;2023-06-22T14:28:47;32.20;44.30
23618;DHT22;18207;32.078;34.818;2023-06-22T14:31:19;32.20;44.40
23618;DHT22;18207;32.078;34.818;2023-06-22T14:33:50;32.20;44.50
23618;DHT22;18207;32.078;34.818;2023-06-22T14:36:20;32.20;44.50
23618;DHT22;18207;32.078;34.818;2023-06-22T14:38:52;32.10;44.50
23618;DHT22;18207;32.078;34.818;2023-06-22T14:41:22;32.10;44.50
23618;DHT22;18207;32.078;34.818;2023-06-22T14:43:53;32.10;44.50
23618;DHT22;18207;32.078;34.818;2023-06-22T14:46:23;32.10;44.60
23618;DHT22;18207;32.078;34.818;2023-06-22T14:48:54;32.10;44.60
23618;DHT22;18207;32.078;34.818;2023-06-22T14:51:24;32.10;44.60
23618;DHT22;18207;32.078;34.818;2023-06-22T14:54:02;32.10;44.60
23618;DHT22;18207;32.078;34.818;2023-06-22T14:56:32;32.10;44.60
23618;DHT22;18207;32.078;34.818;2023-06-22T14:59:02;32.10;44.60
23618;DHT22;18207;32.078;34.818;2023-06-22T15:01:33;32.10;44.70
23618;DHT22;18207;32.078;34.818;2023-06-22T15:04:05;32.10;44.70
23618;DHT22;18207;32.078;34.818;2023-06-22T15:06:35;32.00;44.70
23618;DHT22;18207;32.078;34.818;2023-06-22T15:09:07;32.00;44.70
23618;DHT22;18207;32.078;34.818;2023-06-22T15:11:37;32.00;44.70
23618;DHT22;18207;32.078;34.818;2023-06-22T15:14:06;32.00;44.70
23618;DHT22;18207;32.078;34.818;2023-06-22T15:16:38;31.90;44.60
23618;DHT22;18207;32.078;34.818;2023-06-22T15:19:08;31.90;44.70
23618;DHT22;18207;32.078;34.818;2023-06-22T15:21:40;31.90;44.80
23618;DHT22;18207;32.078;34.818;2023-06-22T15:24:13;31.90;44.80
23618;DHT22;18207;32.078;34.818;2023-06-22T15:26:43;31.90;44.80
23618;DHT22;18207;32.078;34.818;2023-06-22T15:29:14;31.80;44.70
23618;DHT22;18207;32.078;34.818;2023-06-22T15:31:44;31.80;44.70
23618;DHT22;18207;32.078;34.818;2023-06-22T15:34:14;31.80;44.80
23618;DHT22;18207;32.078;34.818;2023-06-22T15:36:44;31.80;44.90
23618;DHT22;18207;32.078;34.818;2023-06-22T15:39:18;31.80;44.90
23618;DHT22;18207;32.078;34.818;2023-06-22T15:41:50;31.80;44.90